sensor_id;sensor_type;location;lat;lon;timestamp;temperature;humidity
4548;DHT22;2286;51.570;7.090;2024-02-04T00:02:07;10.00;99.90
4548;DHT22;2286;51.570;7.090;2024-02-04T00:04:40;10.00;99.90
4548;DHT22;2286;51.570;7.090;2024-02-04T00:07:07;10.00;99.90
4548;DHT22;2286;51.570;7.090;2024-02-04T00:09:34;10.00;99.90
4548;DHT22;2286;51.570;7.090;2024-02-04T00:12:01;10.00;99.90
4548;DHT22;2286;51.570;7.090;2024-02-04T00:14:29;10.00;99.90
4548;DHT22;2286;51.570;7.090;2024-02-04T00:16:56;9.90;99.90
4548;DHT22;2286;51.570;7.090;2024-02-04T00:19:22;9.90;99.90
4548;DHT22;2286;51.570;7.090;2024-02-04T00:21:51;10.00;99.90
4548;DHT22;2286;51.570;7.090;2024-02-04T00:24:17;9.90;99.90
4548;DHT22;2286;51.570;7.090;2024-02-04T00:26:45;9.90;99.90
4548;DHT22;2286;51.570;7.090;2024-02-04T00:29:12;9.90;99.90
4548;DHT22;2286;51.570;7.090;2024-02-04T00:31:39;9.90;99.90
4548;DHT22;2286;51.570;7.090;2024-02-04T00:34:05;10.00;99.90
4548;DHT22;2286;51.570;7.090;2024-02-04T00:36:32;9.90;99.90
4548;DHT22;2286;51.570;7.090;2024-02-04T00:39:00;9.90;99.90
4548;DHT22;2286;51.570;7.090;2024-02-04T00:41:27;9.90;99.90
4548;DHT22;2286;51.570;7.090;2024-02-04T00:43:54;9.90;99.90
4548;DHT22;2286;51.570;7.090;2024-02-04T00:46:20;9.90;99.90
4548;DHT22;2286;51.570;7.090;2024-02-04T00:48:47;9.90;99.90
4548;DHT22;2286;51.570;7.090;2024-02-04T00:51:14;9.90;99.90
4548;DHT22;2286;51.570;7.090;2024-02-04T00:53:42;9.90;99.90
4548;DHT22;2286;51.570;7.090;2024-02-04T00:56:10;9.90;99.90
4548;DHT22;2286;51.570;7.090;2024-02-04T00:58:37;9.90;99.90
4548;DHT22;2286;51.570;7.090;2024-02-04T01:01:04;9.80;99.90
4548;DHT22;2286;51.570;7.090;2024-02-04T01:03:31;9.80;99.90
4548;DHT22;2286;51.570;7.090;2024-02-04T01:05:58;9.70;99.90
4548;DHT22;2286;51.570;7.090;2024-02-04T01:08:25;9.80;99.90
4548;DHT22;2286;51.570;7.090;2024-02-04T01:10:52;9.70;99.90
4548;DHT22;2286;51.570;7.090;2024-02-04T01:13:20;9.70;99.90
4548;DHT22;2286;51.570;7.090;2024-02-04T01:15:47;9.70;99.90
4548;DHT22;2286;51.570;7.090;2024-02-04T01:18:14;9.70;99.90
4548;DHT22;2286;51.570;7.090;2024-02-04T01:20:40;9.70;99.90
4548;DHT22;2286;51.570;7.090;2024-02-04T01:23:08;9.70;99.90
4548;DHT22;2286;51.570;7.090;2024-02-04T01:25:36;9.70;99.90
4548;DHT22;2286;51.570;7.090;2024-02-04T01:28:03;9.70;99.90
4548;DHT22;2286;51.570;7.090;2024-02-04T01:30:31;9.70;99.90
4548;DHT22;2286;51.570;7.090;2024-02-04T01:32:58;9.70;99.90
4548;DHT22;2286;51.570;7.090;2024-02-04T01:35:25;9.70;99.90
4548;DHT22;2286;51.570;7.090;2024-02-04T01:37:51;9.70;99.90
4548;DHT22;2286;51.570;7.090;2024-02-04T01:40:18;9.70;99.90
4548;DHT22;2286;51.570;7.090;2024-02-04T01:42:45;9.70;99.90
4548;DHT22;2286;51.570;7.090;2024-02-04T01:45:12;9.70;99.90
4548;DHT22;2286;51.570;7.090;2024-02-04T01:47:40;9.70;99.90
4548;DHT22;2286;51.570;7.090;2024-02-04T01:50:07;9.70;99.90
4548;DHT22;2286;51.570;7.090;2024-02-04T01:52:37;9.70;99.90
4548;DHT22;2286;51.570;7.090;2024-02-04T01:55:05;9.70;99.90
4548;DHT22;2286;51.570;7.090;2024-02-04T01:57:32;9.80;99.90
4548;DHT22;2286;51.570;7.090;2024-02-04T02:00:00;9.80;99.90
4548;DHT22;2286;51.570;7.090;2024-02-04T02:02:28;9.70;99.90
4548;DHT22;2286;51.570;7.090;2024-02-04T02:04:56;9.70;99.90
4548;DHT22;2286;51.570;7.090;2024-02-04T02:07:24;9.70;99.90
4548;DHT22;2286;51.570;7.090;2024-02-04T02:09:52;9.80;99.90
4548;DHT22;2286;51.570;7.090;2024-02-04T02:12:22;9.80;99.90
4548;DHT22;2286;51.570;7.090;2024-02-04T02:14:56;9.80;99.90
4548;DHT22;2286;51.570;7.090;2024-02-04T02:17:29;9.80;99.90
4548;DHT22;2286;51.570;7.090;2024-02-04T02:20:02;9.80;99.90
4548;DHT22;2286;51.570;7.090;2024-02-04T02:22:39;9.80;99.90
4548;DHT22;2286;51.570;7.090;2024-02-04T02:25:13;9.80;99.90
4548;DHT22;2286;51.570;7.090;2024-02-04T02:27:46;9.90;99.90
4548;DHT22;2286;51.570;7.090;2024-02-04T02:30:13;9.90;99.90
4548;DHT22;2286;51.570;7.090;2024-02-04T02:32:41;9.90;99.90
4548;DHT22;2286;51.570;7.090;2024-02-04T02:35:08;9.90;99.90
4548;DHT22;2286;51.570;7.090;2024-02-04T02:37:40;9.90;99.90
4548;DHT22;2286;51.570;7.090;2024-02-04T02:40:12;9.90;99.90
4548;DHT22;2286;51.570;7.090;2024-02-04T02:42:43;9.90;99.90
4548;DHT22;2286;51.570;7.090;2024-02-04T02:45:13;9.90;99.90
4548;DHT22;2286;51.570;7.090;2024-02-04T02:47:41;9.90;99.90
4548;DHT22;2286;51.570;7.090;2024-02-04T02:50:09;9.90;99.90
4548;DHT22;2286;51.570;7.090;2024-02-04T02:52:35;9.90;99.90
4548;DHT22;2286;51.570;7.090;2024-02-04T02:55:03;9.90;99.90
4548;DHT22;2286;51.570;7.090;2024-02-04T02:57:31;9.90;99.90
4548;DHT22;2286;51.570;7.090;2024-02-04T02:59:57;9.90;99.90
4548;DHT22;2286;51.570;7.090;2024-02-04T03:02:24;9.90;99.90
4548;DHT22;2286;51.570;7.090;2024-02-04T03:04:51;10.00;99.90
4548;DHT22;2286;51.570;7.090;2024-02-04T03:07:18;9.90;99.90
4548;DHT22;2286;51.570;7.090;2024-02-04T03:09:45;9.90;99.90
4548;DHT22;2286;51.570;7.090;2024-02-04T03:12:12;9.90;99.90
4548;DHT22;2286;51.570;7.090;2024-02-04T03:14:40;9.90;99.90
4548;DHT22;2286;51.570;7.090;2024-02-04T03:17:06;9.80;99.90
4548;DHT22;2286;51.570;7.090;2024-02-04T03:19:33;9.80;99.90
4548;DHT22;2286;51.570;7.090;2024-02-04T03:22:00;9.80;99.90
4548;DHT22;2286;51.570;7.090;2024-02-04T03:24:27;9.80;99.90
4548;DHT22;2286;51.570;7.090;2024-02-04T03:26:53;9.80;99.90
4548;DHT22;2286;51.570;7.090;2024-02-04T03:29:20;9.80;99.90
4548;DHT22;2286;51.570;7.090;2024-02-04T03:31:48;9.80;99.90
4548;DHT22;2286;51.570;7.090;2024-02-04T03:34:15;9.80;99.90
4548;DHT22;2286;51.570;7.090;2024-02-04T03:36:42;9.80;99.90
4548;DHT22;2286;51.570;7.090;2024-02-04T03:39:08;9.80;99.90
4548;DHT22;2286;51.570;7.090;2024-02-04T03:41:35;9.80;99.90
4548;DHT22;2286;51.570;7.090;2024-02-04T03:44:02;9.80;99.90
4548;DHT22;2286;51.570;7.090;2024-02-04T03:46:29;9.80;99.90
4548;DHT22;2286;51.570;7.090;2024-02-04T03:48:58;9.80;99.90
4548;DHT22;2286;51.570;7.090;2024-02-04T03:51:24;9.80;99.90
4548;DHT22;2286;51.570;7.090;2024-02-04T03:53:51;9.80;99.90
4548;DHT22;2286;51.570;7.090;2024-02-04T03:56:18;9.90;99.90
4548;DHT22;2286;51.570;7.090;2024-02-04T03:58:45;9.90;99.90
4548;DHT22;2286;51.570;7.090;2024-02-04T04:01:12;9.90;99.90
4548;DHT22;2286;51.570;7.090;2024-02-04T04:03:39;9.90;99.90
4548;DHT22;2286;51.570;7.090;2024-02-04T04:06:08;9.90;99.90
4548;DHT22;2286;51.570;7.090;2024-02-04T04:08:35;9.90;99.90
4548;DHT22;2286;51.570;7.090;2024-02-04T04:11:02;9.90;99.90
4548;DHT22;2286;51.570;7.090;2024-02-04T04:13:29;9.90;99.90
4548;DHT22;2286;51.570;7.090;2024-02-04T04:15:57;9.90;99.90
4548;DHT22;2286;51.570;7.090;2024-02-04T04:18:24;9.90;99.90
4548;DHT22;2286;51.570;7.090;2024-02-04T04:20:51;9.90;99.90
4548;DHT22;2286;51.570;7.090;2024-02-04T04:23:19;10.00;99.90
4548;DHT22;2286;51.570;7.090;2024-02-04T04:25:45;10.00;99.90
4548;DHT22;2286;51.570;7.090;2024-02-04T04:28:12;9.90;99.90
4548;DHT22;2286;51.570;7.090;2024-02-04T04:30:39;10.00;99.90
4548;DHT22;2286;51.570;7.090;2024-02-04T04:33:06;10.00;99.90
4548;DHT22;2286;51.570;7.090;2024-02-04T04:35:33;10.00;99.90
4548;DHT22;2286;51.570;7.090;2024-02-04T04:38:00;10.10;99.90
4548;DHT22;2286;51.570;7.090;2024-02-04T04:40:28;10.10;99.90
4548;DHT22;2286;51.570;7.090;2024-02-04T04:42:55;10.10;99.90
4548;DHT22;2286;51.570;7.090;2024-02-04T04:45:22;10.10;99.90
4548;DHT22;2286;51.570;7.090;2024-02-04T04:47:48;10.10;99.90
4548;DHT22;2286;51.570;7.090;2024-02-04T04:50:15;10.10;99.90
4548;DHT22;2286;51.570;7.090;2024-02-04T04:52:42;10.10;99.90
4548;DHT22;2286;51.570;7.090;2024-02-04T04:55:09;10.10;99.90
4548;DHT22;2286;51.570;7.090;2024-02-04T04:57:37;10.10;99.90
4548;DHT22;2286;51.570;7.090;2024-02-04T05:00:05;10.10;99.90
4548;DHT22;2286;51.570;7.090;2024-02-04T05:02:35;10.20;99.90
4548;DHT22;2286;51.570;7.090;2024-02-04T05:05:02;10.10;99.90
4548;DHT22;2286;51.570;7.090;2024-02-04T05:07:29;10.10;99.90
4548;DHT22;2286;51.570;7.090;2024-02-04T05:09:55;10.00;99.90
4548;DHT22;2286;51.570;7.090;2024-02-04T05:12:22;10.10;99.90
4548;DHT22;2286;51.570;7.090;2024-02-04T05:14:50;10.10;99.90
4548;DHT22;2286;51.570;7.090;2024-02-04T05:17:17;10.00;99.90
4548;DHT22;2286;51.570;7.090;2024-02-04T05:19:44;10.00;99.90
4548;DHT22;2286;51.570;7.090;2024-02-04T05:22:11;10.00;99.90
4548;DHT22;2286;51.570;7.090;2024-02-04T05:24:37;10.00;99.90
4548;DHT22;2286;51.570;7.090;2024-02-04T05:27:04;10.00;99.90
4548;DHT22;2286;51.570;7.090;2024-02-04T05:29:31;10.00;99.90
4548;DHT22;2286;51.570;7.090;2024-02-04T05:31:59;10.00;99.90
4548;DHT22;2286;51.570;7.090;2024-02-04T05:34:26;9.90;99.90
4548;DHT22;2286;51.570;7.090;2024-02-04T05:36:53;9.90;99.90
4548;DHT22;2286;51.570;7.090;2024-02-04T05:39:20;9.90;99.90
4548;DHT22;2286;51.570;7.090;2024-02-04T05:41:49;9.90;99.90
4548;DHT22;2286;51.570;7.090;2024-02-04T05:44:16;9.90;99.90
4548;DHT22;2286;51.570;7.090;2024-02-04T05:46:42;9.90;99.90
4548;DHT22;2286;51.570;7.090;2024-02-04T05:49:10;9.90;99.90
4548;DHT22;2286;51.570;7.090;2024-02-04T05:51:38;9.80;99.90
4548;DHT22;2286;51.570;7.090;2024-02-04T05:54:06;9.80;99.90
4548;DHT22;2286;51.570;7.090;2024-02-04T05:56:33;9.80;99.90
4548;DHT22;2286;51.570;7.090;2024-02-04T05:58:59;9.80;99.90
4548;DHT22;2286;51.570;7.090;2024-02-04T06:01:25;9.80;99.90
4548;DHT22;2286;51.570;7.090;2024-02-04T06:03:52;9.80;99.90
4548;DHT22;2286;51.570;7.090;2024-02-04T06:06:20;9.80;99.90
4548;DHT22;2286;51.570;7.090;2024-02-04T06:08:47;9.80;99.90
4548;DHT22;2286;51.570;7.090;2024-02-04T06:11:14;9.80;99.90
4548;DHT22;2286;51.570;7.090;2024-02-04T06:13:43;9.80;99.90
4548;DHT22;2286;51.570;7.090;2024-02-04T06:16:09;9.80;99.90
4548;DHT22;2286;51.570;7.090;2024-02-04T06:18:37;9.80;99.90
4548;DHT22;2286;51.570;7.090;2024-02-04T06:21:04;9.80;99.90
4548;DHT22;2286;51.570;7.090;2024-02-04T06:23:33;9.80;99.90
4548;DHT22;2286;51.570;7.090;2024-02-04T06:26:00;9.80;99.90
4548;DHT22;2286;51.570;7.090;2024-02-04T06:28:27;9.80;99.90
4548;DHT22;2286;51.570;7.090;2024-02-04T06:30:54;9.80;99.90
4548;DHT22;2286;51.570;7.090;2024-02-04T06:33:20;9.90;99.90
4548;DHT22;2286;51.570;7.090;2024-02-04T06:35:48;9.90;99.90
4548;DHT22;2286;51.570;7.090;2024-02-04T06:38:15;9.90;99.90
4548;DHT22;2286;51.570;7.090;2024-02-04T06:40:44;9.90;99.90
4548;DHT22;2286;51.570;7.090;2024-02-04T06:43:10;9.90;99.90
4548;DHT22;2286;51.570;7.090;2024-02-04T06:45:37;9.90;99.90
4548;DHT22;2286;51.570;7.090;2024-02-04T06:48:05;9.90;99.90
4548;DHT22;2286;51.570;7.090;2024-02-04T06:50:32;9.90;99.90
4548;DHT22;2286;51.570;7.090;2024-02-04T06:52:59;9.90;99.90
4548;DHT22;2286;51.570;7.090;2024-02-04T06:55:26;9.90;99.90
4548;DHT22;2286;51.570;7.090;2024-02-04T06:57:54;9.90;99.90
4548;DHT22;2286;51.570;7.090;2024-02-04T07:00:21;9.90;99.90
4548;DHT22;2286;51.570;7.090;2024-02-04T07:02:48;9.90;99.90
4548;DHT22;2286;51.570;7.090;2024-02-04T07:05:15;9.90;99.90
4548;DHT22;2286;51.570;7.090;2024-02-04T07:07:41;9.90;99.90
4548;DHT22;2286;51.570;7.090;2024-02-04T07:10:09;9.90;99.90
4548;DHT22;2286;51.570;7.090;2024-02-04T07:12:35;9.90;99.90
4548;DHT22;2286;51.570;7.090;2024-02-04T07:15:04;9.90;99.90
4548;DHT22;2286;51.570;7.090;2024-02-04T07:17:31;9.90;99.90
4548;DHT22;2286;51.570;7.090;2024-02-04T07:19:58;9.90;99.90
4548;DHT22;2286;51.570;7.090;2024-02-04T07:22:24;10.00;99.90
4548;DHT22;2286;51.570;7.090;2024-02-04T07:24:51;9.90;99.90
4548;DHT22;2286;51.570;7.090;2024-02-04T07:27:18;10.00;99.90
4548;DHT22;2286;51.570;7.090;2024-02-04T07:29:45;9.90;99.90
4548;DHT22;2286;51.570;7.090;2024-02-04T07:32:14;10.00;99.90
4548;DHT22;2286;51.570;7.090;2024-02-04T07:34:41;10.00;99.90
4548;DHT22;2286;51.570;7.090;2024-02-04T07:37:08;10.00;99.90
4548;DHT22;2286;51.570;7.090;2024-02-04T07:39:34;10.00;99.90
4548;DHT22;2286;51.570;7.090;2024-02-04T07:42:01;10.00;99.90
4548;DHT22;2286;51.570;7.090;2024-02-04T07:44:28;10.10;99.90
4548;DHT22;2286;51.570;7.090;2024-02-04T07:46:55;10.00;99.90
4548;DHT22;2286;51.570;7.090;2024-02-04T07:49:23;10.00;99.90
4548;DHT22;2286;51.570;7.090;2024-02-04T07:51:50;10.10;99.90
4548;DHT22;2286;51.570;7.090;2024-02-04T07:54:17;10.10;99.90
4548;DHT22;2286;51.570;7.090;2024-02-04T07:56:44;10.10;99.90
4548;DHT22;2286;51.570;7.090;2024-02-04T07:59:10;10.10;99.90
4548;DHT22;2286;51.570;7.090;2024-02-04T08:01:37;10.10;98.20
4548;DHT22;2286;51.570;7.090;2024-02-04T08:04:04;10.10;92.90
4548;DHT22;2286;51.570;7.090;2024-02-04T08:06:35;10.10;8.30
4548;DHT22;2286;51.570;7.090;2024-02-04T08:09:03;10.10;1.00
4548;DHT22;2286;51.570;7.090;2024-02-04T08:11:30;10.20;1.00
4548;DHT22;2286;51.570;7.090;2024-02-04T08:13:56;10.10;1.00
4548;DHT22;2286;51.570;7.090;2024-02-04T08:16:23;10.10;1.00
4548;DHT22;2286;51.570;7.090;2024-02-04T08:18:50;10.10;1.00
4548;DHT22;2286;51.570;7.090;2024-02-04T08:21:17;10.10;1.00
4548;DHT22;2286;51.570;7.090;2024-02-04T08:23:45;10.10;1.00
4548;DHT22;2286;51.570;7.090;2024-02-04T08:26:12;10.10;1.00
4548;DHT22;2286;51.570;7.090;2024-02-04T08:28:39;10.20;99.90
4548;DHT22;2286;51.570;7.090;2024-02-04T08:31:06;10.20;49.40
4548;DHT22;2286;51.570;7.090;2024-02-04T08:33:32;10.20;1.00
4548;DHT22;2286;51.570;7.090;2024-02-04T08:35:59;10.20;99.90
4548;DHT22;2286;51.570;7.090;2024-02-04T08:38:26;10.20;1.00
4548;DHT22;2286;51.570;7.090;2024-02-04T08:40:54;10.20;99.90
4548;DHT22;2286;51.570;7.090;2024-02-04T08:43:21;10.20;99.90
4548;DHT22;2286;51.570;7.090;2024-02-04T08:45:48;10.20;1.00
4548;DHT22;2286;51.570;7.090;2024-02-04T08:48:15;10.10;99.90
4548;DHT22;2286;51.570;7.090;2024-02-04T08:50:41;10.20;99.90
4548;DHT22;2286;51.570;7.090;2024-02-04T08:53:08;10.20;99.90
4548;DHT22;2286;51.570;7.090;2024-02-04T08:55:35;10.20;1.00
4548;DHT22;2286;51.570;7.090;2024-02-04T08:58:03;10.20;26.90
4548;DHT22;2286;51.570;7.090;2024-02-04T09:00:30;10.20;19.50
4548;DHT22;2286;51.570;7.090;2024-02-04T09:02:57;10.20;54.50
4548;DHT22;2286;51.570;7.090;2024-02-04T09:05:24;10.20;1.00
4548;DHT22;2286;51.570;7.090;2024-02-04T09:07:51;10.20;1.00
4548;DHT22;2286;51.570;7.090;2024-02-04T09:10:20;10.20;99.90
4548;DHT22;2286;51.570;7.090;2024-02-04T09:12:47;10.20;99.90
4548;DHT22;2286;51.570;7.090;2024-02-04T09:15:15;10.20;50.50
4548;DHT22;2286;51.570;7.090;2024-02-04T09:17:43;10.10;99.90
4548;DHT22;2286;51.570;7.090;2024-02-04T09:20:10;9.90;99.90
4548;DHT22;2286;51.570;7.090;2024-02-04T09:22:37;9.80;1.00
4548;DHT22;2286;51.570;7.090;2024-02-04T09:25:19;9.70;1.00
4548;DHT22;2286;51.570;7.090;2024-02-04T09:27:48;9.70;99.90
4548;DHT22;2286;51.570;7.090;2024-02-04T09:30:16;9.60;1.00
4548;DHT22;2286;51.570;7.090;2024-02-04T09:32:43;9.40;1.00
4548;DHT22;2286;51.570;7.090;2024-02-04T09:35:10;9.40;99.90
4548;DHT22;2286;51.570;7.090;2024-02-04T09:37:37;9.30;1.00
4548;DHT22;2286;51.570;7.090;2024-02-04T09:40:04;9.30;99.90
4548;DHT22;2286;51.570;7.090;2024-02-04T09:42:31;9.30;1.00
4548;DHT22;2286;51.570;7.090;2024-02-04T09:44:58;9.20;99.90
4548;DHT22;2286;51.570;7.090;2024-02-04T09:47:26;9.10;1.00
4548;DHT22;2286;51.570;7.090;2024-02-04T09:49:54;9.10;99.90
4548;DHT22;2286;51.570;7.090;2024-02-04T09:52:27;9.20;1.00
4548;DHT22;2286;51.570;7.090;2024-02-04T09:54:56;9.10;12.60
4548;DHT22;2286;51.570;7.090;2024-02-04T09:57:25;9.10;99.90
4548;DHT22;2286;51.570;7.090;2024-02-04T09:59:52;9.10;99.90
4548;DHT22;2286;51.570;7.090;2024-02-04T10:02:19;9.10;99.90
4548;DHT22;2286;51.570;7.090;2024-02-04T10:04:48;9.10;99.90
4548;DHT22;2286;51.570;7.090;2024-02-04T10:07:14;9.10;99.90
4548;DHT22;2286;51.570;7.090;2024-02-04T10:09:42;9.00;99.90
4548;DHT22;2286;51.570;7.090;2024-02-04T10:12:09;9.10;99.90
4548;DHT22;2286;51.570;7.090;2024-02-04T10:14:36;9.20;99.90
4548;DHT22;2286;51.570;7.090;2024-02-04T10:17:04;9.30;99.90
4548;DHT22;2286;51.570;7.090;2024-02-04T10:19:31;9.20;99.90
4548;DHT22;2286;51.570;7.090;2024-02-04T10:22:01;9.30;99.90
4548;DHT22;2286;51.570;7.090;2024-02-04T10:24:28;9.30;99.90
4548;DHT22;2286;51.570;7.090;2024-02-04T10:26:55;9.40;99.90
4548;DHT22;2286;51.570;7.090;2024-02-04T10:29:22;9.50;99.90
4548;DHT22;2286;51.570;7.090;2024-02-04T10:31:49;9.60;99.90
4548;DHT22;2286;51.570;7.090;2024-02-04T10:34:19;9.70;99.90
4548;DHT22;2286;51.570;7.090;2024-02-04T10:36:46;9.80;99.90
4548;DHT22;2286;51.570;7.090;2024-02-04T10:39:14;9.90;99.90
4548;DHT22;2286;51.570;7.090;2024-02-04T10:41:47;10.00;99.90
4548;DHT22;2286;51.570;7.090;2024-02-04T10:44:16;10.00;99.90
4548;DHT22;2286;51.570;7.090;2024-02-04T10:46:46;10.10;99.90
4548;DHT22;2286;51.570;7.090;2024-02-04T10:49:14;10.10;99.90
4548;DHT22;2286;51.570;7.090;2024-02-04T10:51:42;10.20;99.90
4548;DHT22;2286;51.570;7.090;2024-02-04T10:54:08;10.30;99.90
4548;DHT22;2286;51.570;7.090;2024-02-04T10:56:42;10.40;99.90
4548;DHT22;2286;51.570;7.090;2024-02-04T10:59:10;10.50;99.90
4548;DHT22;2286;51.570;7.090;2024-02-04T11:01:38;10.60;99.90
4548;DHT22;2286;51.570;7.090;2024-02-04T11:04:05;10.70;96.60
4548;DHT22;2286;51.570;7.090;2024-02-04T11:06:33;10.80;1.00
4548;DHT22;2286;51.570;7.090;2024-02-04T11:09:01;10.90;99.90
4548;DHT22;2286;51.570;7.090;2024-02-04T11:11:29;10.90;99.90
4548;DHT22;2286;51.570;7.090;2024-02-04T11:14:01;10.90;1.00
4548;DHT22;2286;51.570;7.090;2024-02-04T11:16:40;10.90;99.90
4548;DHT22;2286;51.570;7.090;2024-02-04T11:19:23;11.00;1.00
4548;DHT22;2286;51.570;7.090;2024-02-04T11:22:13;10.90;99.90
4548;DHT22;2286;51.570;7.090;2024-02-04T11:25:06;11.00;99.90
4548;DHT22;2286;51.570;7.090;2024-02-04T11:27:38;10.90;63.90
4548;DHT22;2286;51.570;7.090;2024-02-04T11:30:08;10.80;1.00
4548;DHT22;2286;51.570;7.090;2024-02-04T11:32:35;10.90;1.00
4548;DHT22;2286;51.570;7.090;2024-02-04T11:35:02;10.90;1.00
4548;DHT22;2286;51.570;7.090;2024-02-04T11:37:33;10.90;28.70
4548;DHT22;2286;51.570;7.090;2024-02-04T11:40:00;10.90;99.90
4548;DHT22;2286;51.570;7.090;2024-02-04T11:42:31;10.90;99.90
4548;DHT22;2286;51.570;7.090;2024-02-04T11:45:08;10.90;1.00
4548;DHT22;2286;51.570;7.090;2024-02-04T11:47:37;10.90;99.90
4548;DHT22;2286;51.570;7.090;2024-02-04T11:50:04;10.90;99.90
4548;DHT22;2286;51.570;7.090;2024-02-04T11:52:32;10.80;99.90
4548;DHT22;2286;51.570;7.090;2024-02-04T11:54:59;10.80;1.00
4548;DHT22;2286;51.570;7.090;2024-02-04T11:57:26;10.70;99.90
4548;DHT22;2286;51.570;7.090;2024-02-04T11:59:54;10.70;99.90
4548;DHT22;2286;51.570;7.090;2024-02-04T12:02:22;10.80;1.00
4548;DHT22;2286;51.570;7.090;2024-02-04T12:04:49;10.80;1.00
4548;DHT22;2286;51.570;7.090;2024-02-04T12:07:17;10.70;94.10
4548;DHT22;2286;51.570;7.090;2024-02-04T12:09:45;10.70;99.90
4548;DHT22;2286;51.570;7.090;2024-02-04T12:12:12;10.60;99.90
4548;DHT22;2286;51.570;7.090;2024-02-04T12:14:39;10.50;1.00
4548;DHT22;2286;51.570;7.090;2024-02-04T12:17:07;10.50;30.90
4548;DHT22;2286;51.570;7.090;2024-02-04T12:19:37;10.50;99.90
4548;DHT22;2286;51.570;7.090;2024-02-04T12:22:03;10.50;99.90
4548;DHT22;2286;51.570;7.090;2024-02-04T12:24:35;10.40;99.90
4548;DHT22;2286;51.570;7.090;2024-02-04T12:27:02;10.40;99.90
4548;DHT22;2286;51.570;7.090;2024-02-04T12:29:29;10.40;99.90
4548;DHT22;2286;51.570;7.090;2024-02-04T12:31:59;10.40;99.90
4548;DHT22;2286;51.570;7.090;2024-02-04T12:34:26;10.40;99.90
4548;DHT22;2286;51.570;7.090;2024-02-04T12:36:59;10.40;99.90
4548;DHT22;2286;51.570;7.090;2024-02-04T12:39:26;10.40;99.90
4548;DHT22;2286;51.570;7.090;2024-02-04T12:41:53;10.50;99.90
4548;DHT22;2286;51.570;7.090;2024-02-04T12:44:19;10.50;99.90
4548;DHT22;2286;51.570;7.090;2024-02-04T12:46:49;10.60;99.90
4548;DHT22;2286;51.570;7.090;2024-02-04T12:49:19;10.50;99.90
4548;DHT22;2286;51.570;7.090;2024-02-04T12:51:46;10.60;99.90
4548;DHT22;2286;51.570;7.090;2024-02-04T12:54:14;10.60;99.90
4548;DHT22;2286;51.570;7.090;2024-02-04T12:56:45;10.60;99.90
4548;DHT22;2286;51.570;7.090;2024-02-04T12:59:12;10.60;99.90
4548;DHT22;2286;51.570;7.090;2024-02-04T13:01:39;10.60;99.90
4548;DHT22;2286;51.570;7.090;2024-02-04T13:04:06;10.70;99.90
4548;DHT22;2286;51.570;7.090;2024-02-04T13:06:38;10.60;99.90
4548;DHT22;2286;51.570;7.090;2024-02-04T13:09:04;10.70;99.90
4548;DHT22;2286;51.570;7.090;2024-02-04T13:11:34;10.60;99.90
4548;DHT22;2286;51.570;7.090;2024-02-04T13:14:00;10.70;99.90
4548;DHT22;2286;51.570;7.090;2024-02-04T13:16:27;10.60;99.90
4548;DHT22;2286;51.570;7.090;2024-02-04T13:18:56;10.70;99.90
4548;DHT22;2286;51.570;7.090;2024-02-04T13:21:22;10.60;99.90
4548;DHT22;2286;51.570;7.090;2024-02-04T13:23:50;10.60;99.90
4548;DHT22;2286;51.570;7.090;2024-02-04T13:26:17;10.60;99.90
4548;DHT22;2286;51.570;7.090;2024-02-04T13:28:45;10.70;99.90
4548;DHT22;2286;51.570;7.090;2024-02-04T13:31:12;10.60;99.90
4548;DHT22;2286;51.570;7.090;2024-02-04T13:33:39;10.60;99.90
4548;DHT22;2286;51.570;7.090;2024-02-04T13:36:07;10.60;99.90
4548;DHT22;2286;51.570;7.090;2024-02-04T13:38:34;10.60;99.90
4548;DHT22;2286;51.570;7.090;2024-02-04T13:41:01;10.50;99.90
4548;DHT22;2286;51.570;7.090;2024-02-04T13:43:29;10.60;99.90
4548;DHT22;2286;51.570;7.090;2024-02-04T13:45:59;10.60;99.90
4548;DHT22;2286;51.570;7.090;2024-02-04T13:48:25;10.50;99.90
4548;DHT22;2286;51.570;7.090;2024-02-04T13:50:52;10.60;99.90
4548;DHT22;2286;51.570;7.090;2024-02-04T13:53:19;10.50;99.90
4548;DHT22;2286;51.570;7.090;2024-02-04T13:55:46;10.50;99.90
4548;DHT22;2286;51.570;7.090;2024-02-04T13:58:13;10.50;99.90
4548;DHT22;2286;51.570;7.090;2024-02-04T14:00:40;10.50;99.90
4548;DHT22;2286;51.570;7.090;2024-02-04T14:03:08;10.50;99.90
4548;DHT22;2286;51.570;7.090;2024-02-04T14:05:35;10.50;99.90
4548;DHT22;2286;51.570;7.090;2024-02-04T14:08:02;10.50;99.90
4548;DHT22;2286;51.570;7.090;2024-02-04T14:10:29;10.50;99.90
4548;DHT22;2286;51.570;7.090;2024-02-04T14:12:56;10.50;99.90
4548;DHT22;2286;51.570;7.090;2024-02-04T14:15:22;10.50;99.90
4548;DHT22;2286;51.570;7.090;2024-02-04T14:17:49;10.50;99.90
4548;DHT22;2286;51.570;7.090;2024-02-04T14:20:17;10.50;99.90
4548;DHT22;2286;51.570;7.090;2024-02-04T14:22:45;10.50;99.90
4548;DHT22;2286;51.570;7.090;2024-02-04T14:25:12;10.50;99.90
4548;DHT22;2286;51.570;7.090;2024-02-04T14:27:39;10.40;99.90
4548;DHT22;2286;51.570;7.090;2024-02-04T14:30:06;10.50;99.90
4548;DHT22;2286;51.570;7.090;2024-02-04T14:32:33;10.50;99.90
4548;DHT22;2286;51.570;7.090;2024-02-04T14:35:00;10.40;99.90
4548;DHT22;2286;51.570;7.090;2024-02-04T14:37:31;10.40;99.90
4548;DHT22;2286;51.570;7.090;2024-02-04T14:39:58;10.40;99.90
4548;DHT22;2286;51.570;7.090;2024-02-04T14:42:25;10.40;99.90
4548;DHT22;2286;51.570;7.090;2024-02-04T14:44:53;10.40;99.90
4548;DHT22;2286;51.570;7.090;2024-02-04T14:47:20;10.40;99.90
4548;DHT22;2286;51.570;7.090;2024-02-04T14:49:47;10.40;99.90
4548;DHT22;2286;51.570;7.090;2024-02-04T14:52:14;10.40;99.90
4548;DHT22;2286;51.570;7.090;2024-02-04T14:54:44;10.40;99.90
4548;DHT22;2286;51.570;7.090;2024-02-04T14:57:11;10.40;99.90
4548;DHT22;2286;51.570;7.090;2024-02-04T14:59:38;10.40;99.90
4548;DHT22;2286;51.570;7.090;2024-02-04T15:02:06;10.40;99.90
4548;DHT22;2286;51.570;7.090;2024-02-04T15:04:34;10.40;99.90
4548;DHT22;2286;51.570;7.090;2024-02-04T15:07:01;10.50;99.90
4548;DHT22;2286;51.570;7.090;2024-02-04T15:09:31;10.50;99.90
4548;DHT22;2286;51.570;7.090;2024-02-04T15:12:00;10.50;99.90
4548;DHT22;2286;51.570;7.090;2024-02-04T15:14:28;10.50;99.90
4548;DHT22;2286;51.570;7.090;2024-02-04T15:16:55;10.50;99.90
4548;DHT22;2286;51.570;7.090;2024-02-04T15:19:23;10.40;99.90
4548;DHT22;2286;51.570;7.090;2024-02-04T15:21:51;10.40;99.90
4548;DHT22;2286;51.570;7.090;2024-02-04T15:24:18;10.40;99.90
4548;DHT22;2286;51.570;7.090;2024-02-04T15:26:48;10.40;99.90
4548;DHT22;2286;51.570;7.090;2024-02-04T15:29:16;10.40;99.90
4548;DHT22;2286;51.570;7.090;2024-02-04T15:31:45;10.40;99.90
4548;DHT22;2286;51.570;7.090;2024-02-04T15:34:15;10.30;99.90
4548;DHT22;2286;51.570;7.090;2024-02-04T15:36:42;10.30;99.90
4548;DHT22;2286;51.570;7.090;2024-02-04T15:39:08;10.30;99.90
4548;DHT22;2286;51.570;7.090;2024-02-04T15:41:37;10.40;99.90
4548;DHT22;2286;51.570;7.090;2024-02-04T15:44:04;10.40;99.90
4548;DHT22;2286;51.570;7.090;2024-02-04T15:46:33;10.40;99.90
4548;DHT22;2286;51.570;7.090;2024-02-04T15:49:02;10.40;99.90
4548;DHT22;2286;51.570;7.090;2024-02-04T15:51:35;10.40;99.90
4548;DHT22;2286;51.570;7.090;2024-02-04T15:54:03;10.40;99.90
4548;DHT22;2286;51.570;7.090;2024-02-04T15:56:33;10.40;99.90
4548;DHT22;2286;51.570;7.090;2024-02-04T15:59:05;10.40;99.90
4548;DHT22;2286;51.570;7.090;2024-02-04T16:01:37;10.40;99.90
4548;DHT22;2286;51.570;7.090;2024-02-04T16:04:06;10.40;99.90
4548;DHT22;2286;51.570;7.090;2024-02-04T16:06:33;10.40;99.90
4548;DHT22;2286;51.570;7.090;2024-02-04T16:09:01;10.40;99.90
4548;DHT22;2286;51.570;7.090;2024-02-04T16:11:38;10.40;99.90
4548;DHT22;2286;51.570;7.090;2024-02-04T16:14:07;10.40;99.90